createdAt,value
2023-05-19T00:01:57.381Z,4.32
2023-05-19T00:04:27.052Z,3.95
2023-05-19T00:06:55.519Z,4.57
2023-05-19T00:09:24.047Z,5.18
2023-05-19T00:11:52.565Z,4.40
2023-05-19T00:14:21.151Z,3.65
2023-05-19T00:16:49.899Z,4.10
2023-05-19T00:19:18.714Z,4.22
2023-05-19T00:21:47.108Z,3.55
2023-05-19T00:24:15.378Z,3.55
2023-05-19T00:26:43.708Z,4.22
2023-05-19T00:29:12.046Z,3.55
2023-05-19T00:31:40.571Z,3.80
2023-05-19T00:34:10.992Z,3.83
2023-05-19T00:36:39.335Z,3.80
2023-05-19T00:39:07.705Z,3.63
2023-05-19T00:41:36.935Z,3.17
2023-05-19T00:44:06.985Z,3.35
2023-05-19T00:46:35.588Z,2.90
2023-05-19T00:49:03.886Z,3.63
2023-05-19T00:51:32.432Z,3.58
2023-05-19T00:54:01.095Z,3.47
2023-05-19T00:56:29.520Z,2.47
2023-05-19T00:58:58.560Z,4.15
2023-05-19T01:01:27.875Z,2.65
2023-05-19T01:03:59.143Z,3.10
2023-05-19T01:08:57.466Z,3.05
2023-05-19T01:11:25.934Z,2.97
2023-05-19T01:13:54.229Z,3.13
2023-05-19T01:16:34.605Z,2.58
2023-05-19T01:19:14.720Z,3.28
2023-05-19T01:22:42.888Z,3.35
2023-05-19T01:25:49.675Z,3.40
2023-05-19T01:28:55.642Z,3.28
2023-05-19T01:31:24.210Z,3.58
2023-05-19T01:33:54.355Z,3.22
2023-05-19T01:36:23.480Z,3.67
2023-05-19T01:38:58.578Z,3.10
2023-05-19T01:41:28.506Z,3.53
2023-05-19T01:43:57.902Z,2.88
2023-05-19T01:46:26.378Z,3.28
2023-05-19T01:48:54.948Z,2.53
2023-05-19T01:51:23.323Z,2.78
2023-05-19T01:53:51.695Z,3.47
2023-05-19T01:56:34.547Z,3.15
2023-05-19T01:59:46.862Z,3.20
2023-05-19T02:02:43.462Z,3.10
2023-05-19T02:05:29.439Z,3.50
2023-05-19T02:08:31.039Z,3.40
2023-05-19T02:11:07.958Z,3.40
2023-05-19T02:13:38.412Z,3.20
2023-05-19T02:16:07.386Z,3.08
2023-05-19T02:18:35.808Z,3.20
2023-05-19T02:21:04.330Z,3.38
2023-05-19T02:23:32.614Z,3.25
2023-05-19T02:26:01.327Z,2.83
2023-05-19T02:28:29.657Z,2.88
2023-05-19T02:31:00.006Z,2.97
2023-05-19T02:33:30.357Z,2.30
2023-05-19T02:35:58.739Z,2.85
2023-05-19T02:38:27.134Z,2.90
2023-05-19T02:40:55.454Z,2.55
2023-05-19T02:43:23.754Z,3.35
2023-05-19T02:45:52.089Z,3.03
2023-05-19T02:48:21.374Z,3.13
2023-05-19T02:50:52.268Z,2.65
2023-05-19T02:53:20.575Z,3.08
2023-05-19T02:55:49.026Z,2.85
2023-05-19T02:58:17.276Z,2.75
2023-05-19T03:00:45.929Z,2.80
2023-05-19T03:03:14.931Z,2.92
2023-05-19T03:05:43.752Z,2.45
2023-05-19T03:08:12.284Z,2.50
2023-05-19T03:10:40.633Z,2.78
2023-05-19T03:13:08.941Z,2.40
2023-05-19T03:15:37.250Z,3.10
2023-05-19T03:18:06.716Z,3.03
2023-05-19T03:20:35.232Z,3.00
2023-05-19T03:23:03.597Z,3.17
2023-05-19T03:25:31.862Z,2.72
2023-05-19T03:28:00.316Z,3.70
2023-05-19T03:30:28.642Z,2.85
2023-05-19T03:33:08.988Z,2.75
2023-05-19T03:35:37.451Z,2.83
2023-05-19T03:38:05.957Z,3.13
2023-05-19T03:40:36.188Z,2.75
2023-05-19T03:43:09.903Z,3.20
2023-05-19T03:45:45.847Z,2.42
2023-05-19T03:48:49.126Z,2.45
2023-05-19T03:51:34.846Z,2.85
2023-05-19T03:54:10.399Z,2.58
2023-05-19T03:56:40.997Z,2.60
2023-05-19T03:59:12.898Z,3.33
2023-05-19T04:01:41.301Z,2.35
2023-05-19T04:04:09.670Z,2.72
2023-05-19T04:06:38.070Z,2.50
2023-05-19T04:09:14.581Z,2.47
2023-05-19T04:11:43.368Z,3.38
2023-05-19T04:14:11.662Z,2.60
2023-05-19T04:16:39.979Z,2.83
2023-05-19T04:19:08.479Z,2.92
2023-05-19T04:21:36.900Z,2.60
2023-05-19T04:24:06.476Z,2.60
2023-05-19T04:26:35.912Z,3.40
2023-05-19T04:29:04.882Z,3.03
2023-05-19T04:31:35.273Z,2.88
2023-05-19T04:34:07.815Z,2.88
2023-05-19T04:36:38.409Z,3.20
2023-05-19T04:39:09.521Z,2.57
2023-05-19T04:41:40.483Z,3.05
2023-05-19T04:44:09.488Z,2.72
2023-05-19T04:46:38.944Z,2.97
2023-05-19T04:49:07.804Z,2.95
2023-05-19T04:51:36.204Z,2.92
2023-05-19T04:54:04.583Z,3.15
2023-05-19T04:56:33.242Z,2.78
2023-05-19T04:59:02.937Z,3.30
2023-05-19T05:01:32.910Z,3.33
2023-05-19T05:04:02.698Z,2.55
2023-05-19T05:06:31.968Z,3.22
2023-05-19T05:09:00.690Z,3.45
2023-05-19T05:11:29.893Z,2.92
2023-05-19T05:13:58.600Z,3.42
2023-05-19T05:19:03.191Z,2.88
2023-05-19T05:21:32.929Z,3.00
2023-05-19T05:24:01.698Z,3.65
2023-05-19T05:26:58.982Z,2.50
2023-05-19T05:29:27.806Z,3.08
2023-05-19T05:32:22.233Z,3.20
2023-05-19T05:34:50.984Z,2.85
2023-05-19T05:37:19.315Z,2.70
2023-05-19T05:39:47.686Z,3.58
2023-05-19T05:42:16.230Z,3.08
2023-05-19T05:44:45.115Z,2.72
2023-05-19T05:47:14.155Z,3.33
2023-05-19T05:49:43.897Z,3.60
2023-05-19T05:52:13.216Z,3.20
2023-05-19T05:54:47.089Z,3.08
2023-05-19T05:57:18.482Z,2.72
2023-05-19T05:59:47.295Z,2.80
2023-05-19T06:02:22.468Z,3.28
2023-05-19T06:04:50.881Z,3.60
2023-05-19T06:07:19.131Z,3.17
2023-05-19T06:09:47.582Z,3.40
2023-05-19T06:12:17.110Z,3.38
2023-05-19T06:14:49.585Z,3.40
2023-05-19T06:17:26.992Z,2.92
2023-05-19T06:19:55.633Z,3.20
2023-05-19T06:22:24.396Z,3.17
2023-05-19T06:24:52.998Z,2.88
2023-05-19T06:27:21.312Z,3.30
2023-05-19T06:29:49.598Z,3.17
2023-05-19T06:32:18.042Z,3.38
2023-05-19T06:34:53.930Z,3.70
2023-05-19T06:37:25.407Z,3.10
2023-05-19T06:39:54.480Z,3.03
2023-05-19T06:42:26.477Z,3.15
2023-05-19T06:45:09.907Z,3.72
2023-05-19T06:47:42.409Z,3.07
2023-05-19T06:52:42.671Z,2.80
2023-05-19T06:55:11.098Z,3.03
2023-05-19T06:57:40.444Z,3.38
2023-05-19T07:00:14.616Z,3.45
2023-05-19T07:02:47.998Z,4.00
2023-05-19T07:05:16.719Z,3.47
2023-05-19T07:07:50.079Z,3.10
2023-05-19T07:10:22.517Z,3.25
2023-05-19T07:12:51.805Z,3.70
2023-05-19T07:15:23.280Z,3.97
2023-05-19T07:17:51.717Z,3.75
2023-05-19T07:20:20.090Z,3.35
2023-05-19T07:22:48.516Z,3.92
2023-05-19T07:25:17.210Z,3.40
2023-05-19T07:27:48.577Z,4.22
2023-05-19T07:30:16.869Z,3.88
2023-05-19T07:32:45.214Z,3.35
2023-05-19T07:35:16.562Z,3.33
2023-05-19T07:37:44.841Z,4.47
2023-05-19T07:40:13.342Z,3.00
2023-05-19T07:42:41.986Z,2.85
2023-05-19T07:45:12.063Z,3.40
2023-05-19T07:47:40.435Z,3.25
2023-05-19T07:50:09.077Z,3.33
2023-05-19T07:52:37.385Z,3.60
2023-05-19T07:55:06.163Z,2.95
2023-05-19T07:57:34.501Z,3.30
2023-05-19T08:00:07.551Z,3.58
2023-05-19T08:02:40.789Z,3.22
2023-05-19T08:05:09.871Z,3.63
2023-05-19T08:07:38.373Z,3.17
2023-05-19T08:10:07.344Z,2.97
2023-05-19T08:12:35.823Z,3.70
2023-05-19T08:15:04.735Z,2.53
2023-05-19T08:17:33.144Z,2.72
2023-05-19T08:20:01.430Z,3.28
2023-05-19T08:22:29.878Z,2.70
2023-05-19T08:24:58.234Z,2.80
2023-05-19T08:27:26.530Z,3.08
2023-05-19T08:29:55.456Z,2.63
2023-05-19T08:32:24.186Z,2.90
2023-05-19T08:34:52.623Z,2.63
2023-05-19T08:37:21.100Z,2.55
2023-05-19T08:39:49.489Z,2.25
2023-05-19T08:42:17.776Z,2.70
2023-05-19T08:44:46.137Z,2.60
2023-05-19T08:47:15.189Z,2.45
2023-05-19T08:49:47.494Z,2.65
2023-05-19T08:52:53.128Z,2.45
2023-05-19T08:55:58.998Z,3.00
2023-05-19T08:58:28.814Z,3.13
2023-05-19T09:00:57.449Z,2.10
2023-05-19T09:03:26.523Z,2.80
2023-05-19T09:05:55.031Z,2.67
2023-05-19T09:08:23.360Z,2.00
2023-05-19T09:10:51.670Z,2.65
2023-05-19T09:13:19.940Z,2.33
2023-05-19T09:15:49.329Z,3.00
2023-05-19T09:18:17.866Z,3.08
2023-05-19T09:20:47.244Z,2.30
2023-05-19T09:23:17.727Z,2.03
2023-05-19T09:25:49.977Z,2.00
2023-05-19T09:28:30.959Z,2.10
2023-05-19T09:31:08.368Z,1.70
2023-05-19T09:33:39.207Z,1.80
2023-05-19T09:36:13.845Z,1.60
2023-05-19T09:38:42.477Z,1.73
2023-05-19T09:41:11.232Z,1.90
2023-05-19T09:43:39.501Z,1.70
2023-05-19T09:46:12.127Z,1.92
2023-05-19T09:48:42.753Z,1.52
2023-05-19T09:51:11.693Z,1.50
2023-05-19T09:53:40.048Z,1.33
2023-05-19T09:56:09.960Z,1.60
2023-05-19T09:58:39.032Z,1.42
2023-05-19T10:01:07.591Z,1.40
2023-05-19T10:03:36.641Z,1.55
2023-05-19T10:06:05.558Z,1.60
2023-05-19T10:08:35.862Z,1.17
2023-05-19T10:11:04.337Z,1.42
2023-05-19T10:13:32.893Z,1.40
2023-05-19T10:16:01.781Z,1.05
2023-05-19T10:18:30.293Z,1.48
2023-05-19T10:21:00.168Z,1.87
2023-05-19T10:23:28.424Z,1.70
2023-05-19T10:25:59.259Z,1.45
2023-05-19T10:28:35.334Z,1.60
2023-05-19T10:34:21.894Z,1.55
2023-05-19T10:37:12.094Z,1.67
2023-05-19T10:39:44.394Z,2.03
2023-05-19T10:42:38.432Z,2.25
2023-05-19T10:45:21.284Z,1.83
2023-05-19T10:47:51.774Z,2.42
2023-05-19T10:50:21.114Z,1.95
2023-05-19T10:52:56.887Z,2.28
2023-05-19T10:55:53.228Z,1.50
2023-05-19T10:58:46.158Z,1.70
2023-05-19T11:01:17.004Z,1.60
2023-05-19T11:03:47.383Z,1.23
2023-05-19T11:06:29.635Z,1.10
2023-05-19T11:09:00.972Z,1.02
2023-05-19T11:11:51.992Z,1.20
2023-05-19T11:14:26.838Z,1.65
2023-05-19T11:16:59.621Z,1.00
2023-05-19T11:19:32.562Z,1.23
2023-05-19T11:22:13.945Z,1.42
2023-05-19T11:24:53.388Z,1.35
2023-05-19T11:27:23.119Z,1.30
2023-05-19T11:29:52.103Z,0.93
2023-05-19T11:32:26.996Z,1.27
2023-05-19T11:34:57.586Z,0.98
2023-05-19T11:37:26.717Z,1.13
2023-05-19T11:39:56.276Z,0.90
2023-05-19T11:42:24.634Z,1.02
2023-05-19T11:44:56.160Z,1.27
2023-05-19T11:47:24.652Z,1.10
2023-05-19T11:49:54.844Z,1.52
2023-05-19T11:54:52.512Z,0.93
2023-05-19T11:57:21.000Z,1.02
2023-05-19T11:59:52.246Z,0.70
2023-05-19T12:02:24.784Z,1.13
2023-05-19T12:04:54.086Z,1.10
2023-05-19T12:07:26.049Z,1.02
2023-05-19T12:09:56.039Z,1.10
2023-05-19T12:12:24.333Z,1.02
2023-05-19T12:14:53.348Z,1.25
2023-05-19T12:17:24.084Z,1.00
2023-05-19T12:19:52.689Z,1.05
2023-05-19T12:22:21.095Z,1.02
2023-05-19T12:24:50.348Z,1.08
2023-05-19T12:27:26.219Z,0.90
2023-05-19T12:29:57.214Z,1.17
2023-05-19T12:32:27.725Z,0.77
2023-05-19T12:35:00.305Z,1.10
2023-05-19T12:37:30.085Z,0.95
2023-05-19T12:39:59.306Z,1.05
2023-05-19T12:42:31.426Z,0.80
2023-05-19T12:45:03.238Z,1.02
2023-05-19T12:47:34.807Z,1.15
2023-05-19T12:50:10.263Z,1.08
2023-05-19T12:52:52.120Z,1.27
2023-05-19T12:55:22.149Z,1.50
2023-05-19T12:57:57.302Z,1.37
2023-05-19T13:00:31.155Z,1.30
2023-05-19T13:03:05.928Z,1.23
2023-05-19T13:05:39.203Z,1.00
2023-05-19T13:08:12.673Z,1.00
2023-05-19T13:10:44.565Z,1.52
2023-05-19T13:13:13.630Z,0.88
2023-05-19T13:15:44.066Z,1.02
2023-05-19T13:18:13.700Z,1.08
2023-05-19T13:20:44.382Z,1.10
2023-05-19T13:23:14.212Z,1.00
2023-05-19T13:25:43.420Z,1.17
2023-05-19T13:28:12.012Z,1.07
2023-05-19T13:30:41.960Z,1.00
2023-05-19T13:35:38.850Z,0.90
2023-05-19T13:38:09.862Z,1.00
2023-05-19T13:40:39.790Z,1.20
2023-05-19T13:43:09.001Z,0.90
2023-05-19T13:45:37.717Z,0.70
2023-05-19T13:48:07.376Z,1.10
2023-05-19T13:50:36.115Z,1.20
2023-05-19T13:53:04.396Z,0.80
2023-05-19T13:55:33.191Z,1.15
2023-05-19T13:58:01.472Z,1.02
2023-05-19T14:00:31.759Z,1.05
2023-05-19T14:03:00.559Z,1.63
2023-05-19T14:05:29.322Z,1.15
2023-05-19T14:07:58.149Z,1.92
2023-05-19T14:10:26.664Z,1.17
2023-05-19T14:13:25.850Z,0.98
2023-05-19T14:15:44.215Z,0.80
2023-05-19T14:18:12.637Z,1.50
2023-05-19T14:20:41.467Z,0.90
2023-05-19T14:23:09.945Z,0.90
2023-05-19T14:25:38.285Z,1.50
2023-05-19T14:28:06.516Z,0.90
2023-05-19T14:30:35.006Z,1.02
2023-05-19T14:33:03.765Z,1.00
2023-05-19T14:35:32.337Z,0.90
2023-05-19T14:38:00.832Z,1.75
2023-05-19T14:40:29.264Z,1.02
2023-05-19T14:42:57.916Z,4.45
2023-05-19T14:45:26.241Z,1.25
2023-05-19T14:47:54.769Z,1.20
2023-05-19T14:50:23.161Z,1.77
2023-05-19T14:52:51.405Z,1.65
2023-05-19T14:55:19.758Z,1.80
2023-05-19T14:57:48.038Z,1.80
2023-05-19T15:00:17.684Z,1.77
2023-05-19T15:02:46.272Z,1.13
2023-05-19T15:05:14.659Z,1.48
2023-05-19T15:07:43.016Z,1.60
2023-05-19T15:10:11.615Z,1.20
2023-05-19T15:12:39.938Z,1.23
2023-05-19T15:15:09.156Z,1.13
2023-05-19T15:17:37.491Z,1.58
2023-05-19T15:20:06.737Z,1.20
2023-05-19T15:22:35.172Z,1.35
2023-05-19T15:25:03.640Z,1.38
2023-05-19T15:27:31.931Z,1.25
2023-05-19T15:30:00.310Z,0.95
2023-05-19T15:32:28.635Z,1.23
2023-05-19T15:34:57.030Z,1.40
2023-05-19T15:37:25.541Z,0.90
2023-05-19T15:39:54.863Z,0.90
2023-05-19T15:42:23.219Z,1.70
2023-05-19T15:44:51.526Z,1.20
2023-05-19T15:47:19.862Z,0.95
2023-05-19T15:49:48.186Z,1.23
2023-05-19T15:52:16.575Z,1.00
2023-05-19T15:54:45.002Z,0.98
2023-05-19T15:57:13.557Z,0.98
2023-05-19T15:59:41.996Z,1.10
2023-05-19T16:02:10.801Z,1.15
2023-05-19T16:04:39.209Z,1.08
2023-05-19T16:07:07.532Z,1.10
2023-05-19T16:09:35.864Z,1.05
2023-05-19T16:12:04.313Z,0.93
2023-05-19T16:14:36.338Z,1.15
2023-05-19T16:17:11.245Z,1.20
2023-05-19T16:19:39.743Z,0.90
2023-05-19T16:22:08.051Z,1.20
2023-05-19T16:24:36.406Z,1.20
2023-05-19T16:27:05.208Z,1.08
2023-05-19T16:29:33.541Z,1.13
2023-05-19T16:32:01.923Z,1.08
2023-05-19T16:34:30.730Z,1.23
2023-05-19T16:36:59.228Z,1.42
2023-05-19T16:39:27.560Z,0.85
2023-05-19T16:41:55.865Z,0.98
2023-05-19T16:44:24.583Z,1.00
2023-05-19T16:46:53.016Z,1.02
2023-05-19T16:49:21.374Z,1.00
2023-05-19T16:51:50.024Z,1.67
2023-05-19T16:54:18.512Z,1.70
2023-05-19T16:56:46.793Z,1.13
2023-05-19T16:59:15.074Z,1.30
2023-05-19T17:01:43.840Z,0.85
2023-05-19T17:04:12.186Z,1.15
2023-05-19T17:06:40.579Z,0.95
2023-05-19T17:09:08.896Z,0.90
2023-05-19T17:11:37.221Z,0.80
2023-05-19T17:14:09.250Z,0.80
2023-05-19T17:16:38.784Z,1.00
2023-05-19T17:19:07.087Z,0.90
2023-05-19T17:21:35.647Z,0.90
2023-05-19T17:24:03.912Z,1.58
2023-05-19T17:26:32.413Z,3.10
2023-05-19T17:29:00.753Z,2.50
2023-05-19T17:31:29.070Z,1.33
2023-05-19T17:33:57.339Z,1.05
2023-05-19T17:36:26.070Z,1.15
2023-05-19T17:38:54.501Z,1.20
2023-05-19T17:41:22.792Z,1.10
2023-05-19T17:43:51.266Z,1.23
2023-05-19T17:46:19.629Z,1.38
2023-05-19T17:48:48.002Z,1.50
2023-05-19T17:51:16.320Z,1.08
2023-05-19T17:53:45.422Z,1.05
2023-05-19T17:56:13.946Z,1.20
2023-05-19T17:58:42.628Z,1.23
2023-05-19T18:01:11.236Z,1.40
2023-05-19T18:03:39.933Z,1.17
2023-05-19T18:06:08.472Z,1.30
2023-05-19T18:08:37.704Z,1.13
2023-05-19T18:11:06.477Z,1.30
2023-05-19T18:13:35.304Z,1.33
2023-05-19T18:16:03.657Z,1.38
2023-05-19T18:18:34.592Z,1.08
2023-05-19T18:21:05.888Z,1.20
2023-05-19T18:23:34.260Z,1.10
2023-05-19T18:26:02.533Z,1.10
2023-05-19T18:28:30.871Z,1.27
2023-05-19T18:31:00.812Z,1.50
2023-05-19T18:33:31.065Z,1.45
2023-05-19T18:35:59.982Z,0.95
2023-05-19T18:38:28.284Z,1.10
2023-05-19T18:40:56.807Z,1.00
2023-05-19T18:43:25.237Z,1.13
2023-05-19T18:45:53.644Z,1.23
2023-05-19T18:48:22.533Z,0.95
2023-05-19T18:50:51.407Z,1.20
2023-05-19T18:53:21.160Z,1.00
2023-05-19T18:55:49.545Z,1.40
2023-05-19T18:58:18.875Z,1.20
2023-05-19T19:00:47.990Z,1.33
2023-05-19T19:03:16.458Z,1.23
2023-05-19T19:05:46.085Z,1.05
2023-05-19T19:08:14.365Z,1.35
2023-05-19T19:10:43.265Z,1.20
2023-05-19T19:13:11.613Z,1.40
2023-05-19T19:15:39.914Z,1.20
2023-05-19T19:18:08.479Z,1.50
2023-05-19T19:20:36.868Z,1.50
2023-05-19T19:23:06.545Z,1.60
2023-05-19T19:25:35.203Z,1.42
2023-05-19T19:28:03.683Z,1.45
2023-05-19T19:30:32.369Z,1.48
2023-05-19T19:33:01.035Z,1.55
2023-05-19T19:35:29.475Z,1.75
2023-05-19T19:37:58.688Z,2.22
2023-05-19T19:40:26.975Z,1.40
2023-05-19T19:42:55.374Z,1.80
2023-05-19T19:45:23.751Z,1.80
2023-05-19T19:47:52.445Z,2.05
2023-05-19T19:50:20.778Z,1.50
2023-05-19T19:52:49.088Z,2.10
2023-05-19T19:55:17.507Z,2.53
2023-05-19T19:57:49.152Z,1.95
2023-05-19T20:00:18.498Z,1.67
2023-05-19T20:05:19.987Z,1.88
2023-05-19T20:07:48.246Z,2.78
2023-05-19T20:10:16.770Z,2.00
2023-05-19T20:12:47.095Z,2.10
2023-05-19T20:15:15.960Z,2.10
2023-05-19T20:17:44.332Z,1.80
2023-05-19T20:20:13.153Z,1.67
2023-05-19T20:22:41.637Z,1.70
2023-05-19T20:25:10.079Z,1.60
2023-05-19T20:27:38.355Z,1.63
2023-05-19T20:30:07.495Z,2.00
2023-05-19T20:32:36.460Z,1.63
2023-05-19T20:35:05.128Z,1.55
2023-05-19T20:37:33.487Z,1.75
2023-05-19T20:40:01.815Z,1.75
2023-05-19T20:42:30.099Z,1.90
2023-05-19T20:44:58.990Z,1.70
2023-05-19T20:47:29.750Z,1.55
2023-05-19T20:49:58.819Z,1.65
2023-05-19T20:52:27.389Z,1.38
2023-05-19T20:54:56.890Z,1.75
2023-05-19T20:57:27.634Z,1.70
2023-05-19T20:59:57.116Z,1.77
2023-05-19T21:02:25.468Z,1.85
2023-05-19T21:04:53.991Z,1.67
2023-05-19T21:07:22.603Z,1.33
2023-05-19T21:09:51.443Z,1.70
2023-05-19T21:12:23.804Z,1.65
2023-05-19T21:14:52.445Z,1.40
2023-05-19T21:17:21.282Z,1.50
2023-05-19T21:19:50.740Z,2.03
2023-05-19T21:22:19.158Z,1.95
2023-05-19T21:24:47.496Z,1.42
2023-05-19T21:27:15.789Z,1.45
2023-05-19T21:29:44.058Z,1.70
2023-05-19T21:32:12.397Z,1.63
2023-05-19T21:34:40.746Z,1.80
2023-05-19T21:37:09.082Z,1.70
2023-05-19T21:39:37.446Z,1.67
2023-05-19T21:42:06.405Z,1.75
2023-05-19T21:44:34.733Z,1.50
2023-05-19T21:47:03.089Z,1.50
2023-05-19T21:49:31.670Z,1.42
2023-05-19T21:52:00.016Z,1.42
2023-05-19T21:54:28.356Z,1.48
2023-05-19T21:56:56.639Z,1.85
2023-05-19T21:59:25.017Z,1.58
2023-05-19T22:01:53.508Z,1.67
2023-05-19T22:04:22.518Z,1.77
2023-05-19T22:06:51.056Z,2.00
2023-05-19T22:09:19.371Z,1.83
2023-05-19T22:11:47.665Z,1.58
2023-05-19T22:14:16.185Z,1.85
2023-05-19T22:16:44.703Z,1.65
2023-05-19T22:19:13.425Z,1.58
2023-05-19T22:21:42.778Z,2.10
2023-05-19T22:24:11.165Z,1.50
2023-05-19T22:26:42.628Z,1.65
2023-05-19T22:29:15.099Z,2.13
2023-05-19T22:31:43.444Z,1.55
2023-05-19T22:34:15.293Z,1.35
2023-05-19T22:36:45.912Z,1.50
2023-05-19T22:39:14.461Z,1.75
2023-05-19T22:41:42.860Z,1.35
2023-05-19T22:44:15.386Z,1.48
2023-05-19T22:46:44.669Z,1.83
2023-05-19T22:49:13.053Z,1.65
2023-05-19T22:51:41.330Z,1.90
2023-05-19T22:54:10.727Z,1.70
2023-05-19T22:56:38.978Z,1.38
2023-05-19T22:59:07.295Z,1.45
2023-05-19T23:01:35.743Z,1.55
2023-05-19T23:04:04.389Z,1.60
2023-05-19T23:06:32.702Z,1.58
2023-05-19T23:09:04.716Z,1.83
2023-05-19T23:11:33.170Z,1.60
2023-05-19T23:14:01.961Z,2.00
2023-05-19T23:16:30.430Z,1.92
2023-05-19T23:18:58.839Z,1.65
2023-05-19T23:21:27.157Z,2.22
2023-05-19T23:23:55.882Z,1.83
2023-05-19T23:26:24.262Z,1.90
2023-05-19T23:28:52.601Z,1.70
2023-05-19T23:31:21.041Z,1.80
2023-05-19T23:33:49.476Z,1.88
2023-05-19T23:36:17.802Z,1.75
2023-05-19T23:38:46.072Z,1.42
2023-05-19T23:41:14.761Z,1.27
2023-05-19T23:43:43.097Z,1.90
2023-05-19T23:46:11.509Z,1.70
2023-05-19T23:48:39.894Z,1.30
2023-05-19T23:51:08.188Z,1.80
2023-05-19T23:53:36.650Z,1.50
2023-05-19T23:56:05.302Z,1.40
2023-05-19T23:58:33.586Z,1.58
